createdAt,value
2023-02-05T00:01:03.301Z,12.45
2023-02-05T00:03:30.924Z,12.41
2023-02-05T00:05:58.553Z,12.58
2023-02-05T00:08:25.831Z,12.65
2023-02-05T00:10:53.890Z,12.69
2023-02-05T00:13:21.601Z,12.55
2023-02-05T00:15:49.262Z,12.47
2023-02-05T00:18:17.908Z,12.51
2023-02-05T00:20:45.288Z,12.55
2023-02-05T00:23:12.630Z,12.62
2023-02-05T00:25:40.299Z,12.56
2023-02-05T00:28:07.200Z,12.52
2023-02-05T00:30:34.577Z,12.49
2023-02-05T00:33:01.858Z,12.62
2023-02-05T00:35:31.022Z,12.47
2023-02-05T00:37:58.499Z,12.21
2023-02-05T00:40:25.714Z,12.34
2023-02-05T00:42:53.151Z,12.39
2023-02-05T00:45:20.380Z,12.16
2023-02-05T00:47:47.527Z,11.96
2023-02-05T00:50:14.968Z,11.87
2023-02-05T00:52:43.685Z,11.70
2023-02-05T00:55:10.795Z,11.70
2023-02-05T00:57:38.399Z,11.77
2023-02-05T01:00:09.225Z,11.77
2023-02-05T01:02:36.553Z,11.73
2023-02-05T01:05:04.592Z,11.56
2023-02-05T01:07:31.841Z,11.53
2023-02-05T01:10:00.478Z,11.58
2023-02-05T01:12:27.796Z,11.61
2023-02-05T01:14:54.983Z,11.61
2023-02-05T01:17:22.332Z,11.65
2023-02-05T01:19:49.588Z,11.66
2023-02-05T01:22:17.082Z,11.50
2023-02-05T01:24:44.219Z,11.36
2023-02-05T01:27:13.407Z,11.19
2023-02-05T01:29:40.523Z,11.16
2023-02-05T01:32:07.876Z,11.10
2023-02-05T01:34:36.051Z,10.97
2023-02-05T01:37:03.425Z,11.03
2023-02-05T01:39:30.648Z,11.14
2023-02-05T01:41:58.181Z,11.21
2023-02-05T01:44:27.263Z,11.25
2023-02-05T01:46:56.213Z,11.45
2023-02-05T01:49:27.421Z,11.42
2023-02-05T01:51:56.899Z,11.32
2023-02-05T01:54:28.775Z,11.27
2023-02-05T01:57:01.536Z,11.00
2023-02-05T01:59:36.461Z,10.84
2023-02-05T02:02:04.404Z,10.76
2023-02-05T02:04:38.577Z,10.76
2023-02-05T02:07:09.191Z,10.76
2023-02-05T02:09:38.851Z,10.79
2023-02-05T02:12:07.332Z,10.73
2023-02-05T02:14:38.979Z,10.65
2023-02-05T02:17:07.672Z,10.57
2023-02-05T02:19:44.596Z,10.56
2023-02-05T02:22:42.061Z,10.70
2023-02-05T02:25:33.382Z,10.67
2023-02-05T02:28:09.754Z,10.54
2023-02-05T02:30:41.786Z,10.38
2023-02-05T02:33:17.907Z,10.38
2023-02-05T02:35:49.465Z,10.36
2023-02-05T02:38:26.172Z,10.37
2023-02-05T02:40:55.769Z,10.36
2023-02-05T02:43:30.731Z,10.44
2023-02-05T02:46:04.237Z,10.48
2023-02-05T02:48:35.359Z,10.47
2023-02-05T02:51:03.646Z,10.54
2023-02-05T02:53:37.288Z,10.52
2023-02-05T02:56:06.774Z,10.38
2023-02-05T02:58:40.364Z,10.33
2023-02-05T03:01:10.615Z,10.25
2023-02-05T03:03:42.702Z,10.02
2023-02-05T03:06:12.289Z,9.91
2023-02-05T03:08:45.921Z,9.81
2023-02-05T03:11:14.746Z,9.81
2023-02-05T03:13:45.885Z,9.82
2023-02-05T03:16:15.976Z,9.75
2023-02-05T03:18:43.518Z,9.77
2023-02-05T03:21:16.272Z,9.80
2023-02-05T03:23:43.824Z,9.77
2023-02-05T03:26:24.882Z,9.63
2023-02-05T03:28:54.578Z,9.58
2023-02-05T03:31:29.024Z,9.58
2023-02-05T03:34:10.329Z,9.48
2023-02-05T03:36:48.533Z,9.48
2023-02-05T03:39:28.914Z,9.51
2023-02-05T03:42:12.005Z,9.49
2023-02-05T03:44:58.060Z,9.51
2023-02-05T03:47:39.039Z,9.41
2023-02-05T03:50:19.346Z,9.34
2023-02-05T03:52:51.889Z,9.30
2023-02-05T03:55:22.892Z,9.34
2023-02-05T03:57:57.291Z,9.37
2023-02-05T04:00:27.454Z,9.27
2023-02-05T04:02:55.020Z,9.26
2023-02-05T04:05:22.217Z,9.28
2023-02-05T04:07:49.624Z,9.22
2023-02-05T04:10:17.191Z,9.34
2023-02-05T04:12:45.128Z,9.37
2023-02-05T04:15:12.794Z,9.38
2023-02-05T04:17:41.521Z,9.32
2023-02-05T04:20:10.200Z,9.27
2023-02-05T04:22:37.659Z,9.17
2023-02-05T04:25:05.740Z,9.14
2023-02-05T04:27:34.358Z,9.09
2023-02-05T04:30:01.766Z,9.06
2023-02-05T04:32:29.005Z,8.92
2023-02-05T04:34:57.792Z,8.89
2023-02-05T04:37:25.279Z,8.86
2023-02-05T04:39:52.492Z,8.78
2023-02-05T04:42:19.895Z,8.80
2023-02-05T04:44:47.418Z,8.75
2023-02-05T04:47:14.541Z,8.75
2023-02-05T04:49:41.872Z,8.76
2023-02-05T04:52:10.589Z,8.85
2023-02-05T04:54:38.403Z,8.82
2023-02-05T04:57:05.810Z,8.76
2023-02-05T04:59:33.189Z,8.69
2023-02-05T05:02:00.449Z,8.78
2023-02-05T05:04:27.990Z,8.79
2023-02-05T05:06:55.135Z,8.78
2023-02-05T05:09:23.907Z,8.79
2023-02-05T05:11:51.607Z,8.84
2023-02-05T05:14:18.811Z,8.87
2023-02-05T05:16:45.944Z,8.81
2023-02-05T05:19:13.347Z,8.78
2023-02-05T05:21:40.766Z,8.81
2023-02-05T05:24:08.442Z,8.84
2023-02-05T05:26:38.281Z,8.79
2023-02-05T05:29:05.514Z,8.61
2023-02-05T05:31:32.909Z,8.56
2023-02-05T05:34:00.234Z,8.49
2023-02-05T05:36:27.373Z,8.59
2023-02-05T05:38:54.618Z,8.66
2023-02-05T05:41:24.013Z,8.67
2023-02-05T05:43:54.461Z,8.66
2023-02-05T05:46:24.947Z,8.65
2023-02-05T05:48:53.326Z,8.65
2023-02-05T05:51:21.847Z,8.57
2023-02-05T05:53:49.491Z,8.49
2023-02-05T05:56:17.565Z,8.49
2023-02-05T05:58:45.247Z,8.36
2023-02-05T06:01:16.055Z,8.34
2023-02-05T06:03:43.383Z,8.38
2023-02-05T06:06:12.648Z,8.35
2023-02-05T06:08:40.330Z,8.45
2023-02-05T06:11:07.595Z,8.58
2023-02-05T06:13:35.949Z,8.52
2023-02-05T06:16:03.751Z,8.51
2023-02-05T06:18:32.551Z,8.46
2023-02-05T06:21:02.459Z,8.39
2023-02-05T06:23:29.922Z,8.42
2023-02-05T06:25:57.432Z,8.32
2023-02-05T06:28:25.091Z,8.24
2023-02-05T06:30:52.725Z,8.14
2023-02-05T06:33:19.966Z,8.24
2023-02-05T06:35:48.777Z,8.29
2023-02-05T06:38:16.124Z,8.21
2023-02-05T06:40:43.358Z,8.14
2023-02-05T06:43:10.485Z,8.07
2023-02-05T06:45:37.511Z,8.04
2023-02-05T06:48:05.320Z,8.12
2023-02-05T06:50:34.122Z,8.15
2023-02-05T06:53:03.487Z,8.18
2023-02-05T06:55:30.702Z,8.27
2023-02-05T06:57:58.005Z,8.27
2023-02-05T07:00:25.835Z,8.34
2023-02-05T07:02:53.260Z,8.56
2023-02-05T07:05:20.848Z,8.54
2023-02-05T07:07:50.005Z,8.31
2023-02-05T07:10:18.808Z,8.14
2023-02-05T07:12:46.089Z,8.10
2023-02-05T07:15:13.386Z,8.17
2023-02-05T07:17:40.828Z,8.37
2023-02-05T07:20:09.422Z,8.32
2023-02-05T07:22:37.073Z,8.17
2023-02-05T07:25:04.953Z,7.99
2023-02-05T07:27:33.649Z,7.92
2023-02-05T07:30:01.069Z,7.98
2023-02-05T07:32:28.183Z,7.98
2023-02-05T07:34:55.421Z,8.03
2023-02-05T07:37:22.791Z,8.03
2023-02-05T07:39:50.274Z,7.96
2023-02-05T07:42:17.894Z,7.96
2023-02-05T07:44:46.882Z,8.00
2023-02-05T07:47:14.475Z,7.99
2023-02-05T07:49:41.660Z,7.96
2023-02-05T07:52:09.077Z,8.34
2023-02-05T07:54:36.377Z,8.63
2023-02-05T07:57:05.346Z,8.56
2023-02-05T07:59:34.292Z,8.38
2023-02-05T08:02:03.561Z,8.26
2023-02-05T08:04:31.309Z,8.26
2023-02-05T08:06:58.939Z,8.55
2023-02-05T08:09:26.235Z,8.62
2023-02-05T08:11:53.456Z,8.61
2023-02-05T08:14:20.691Z,8.71
2023-02-05T08:16:47.910Z,8.65
2023-02-05T08:19:17.549Z,8.64
2023-02-05T08:21:45.110Z,8.73
2023-02-05T08:24:12.383Z,8.87
2023-02-05T08:26:39.677Z,9.03
2023-02-05T08:29:07.645Z,9.25
2023-02-05T08:31:35.687Z,10.04
2023-02-05T08:34:03.613Z,9.90
2023-02-05T08:36:32.536Z,9.80
2023-02-05T08:39:00.119Z,9.94
2023-02-05T08:41:27.569Z,10.02
2023-02-05T08:43:55.232Z,9.89
2023-02-05T08:46:23.614Z,9.62
2023-02-05T08:48:51.010Z,9.49
2023-02-05T08:51:20.075Z,9.44
2023-02-05T08:53:48.798Z,9.61
2023-02-05T08:56:17.177Z,9.78
2023-02-05T08:58:45.627Z,9.85
2023-02-05T09:01:14.850Z,10.02
2023-02-05T09:03:42.029Z,9.99
2023-02-05T09:06:11.395Z,10.15
2023-02-05T09:08:39.107Z,10.48
2023-02-05T09:11:08.102Z,10.38
2023-02-05T09:13:36.297Z,10.30
2023-02-05T09:16:03.772Z,10.20
2023-02-05T09:18:30.976Z,10.17
2023-02-05T09:20:58.317Z,10.62
2023-02-05T09:23:25.862Z,10.89
2023-02-05T09:25:53.213Z,10.92
2023-02-05T09:28:22.264Z,10.93
2023-02-05T09:30:49.480Z,11.15
2023-02-05T09:33:16.722Z,11.58
2023-02-05T09:35:44.583Z,11.44
2023-02-05T09:38:14.475Z,11.16
2023-02-05T09:40:55.966Z,10.98
2023-02-05T09:43:37.337Z,11.20
2023-02-05T09:46:12.619Z,11.37
2023-02-05T09:48:52.903Z,11.51
2023-02-05T09:51:34.739Z,11.60
2023-02-05T09:54:12.221Z,11.74
2023-02-05T09:56:42.281Z,11.68
2023-02-05T09:59:16.288Z,11.84
2023-02-05T10:01:49.172Z,11.86
2023-02-05T10:04:16.782Z,12.22
2023-02-05T10:07:13.902Z,12.49
2023-02-05T10:10:06.118Z,12.76
2023-02-05T10:13:00.085Z,13.18
2023-02-05T10:15:44.479Z,13.38
2023-02-05T10:18:23.065Z,13.54
2023-02-05T10:21:01.540Z,13.12
2023-02-05T10:24:02.058Z,13.00
2023-02-05T10:26:36.065Z,13.11
2023-02-05T10:29:16.764Z,13.33
2023-02-05T10:31:55.527Z,13.59
2023-02-05T10:34:34.021Z,13.72
2023-02-05T10:39:33.153Z,14.43
2023-02-05T10:42:06.619Z,14.34
2023-02-05T10:44:38.849Z,14.17
2023-02-05T10:47:14.290Z,14.22
2023-02-05T10:49:48.261Z,14.37
2023-02-05T10:52:16.988Z,14.92
2023-02-05T10:54:46.751Z,15.42
2023-02-05T10:57:17.048Z,15.51
2023-02-05T10:59:52.757Z,15.86
2023-02-05T11:02:22.779Z,15.81
2023-02-05T11:04:56.472Z,15.77
2023-02-05T11:07:29.210Z,15.78
2023-02-05T11:09:58.607Z,15.85
2023-02-05T11:12:32.702Z,15.82
2023-02-05T11:15:02.882Z,15.80
2023-02-05T11:17:34.977Z,15.87
2023-02-05T11:20:07.013Z,15.94
2023-02-05T11:22:36.913Z,16.16
2023-02-05T11:25:15.516Z,16.38
2023-02-05T11:27:50.623Z,16.17
2023-02-05T11:30:52.313Z,16.14
2023-02-05T11:33:32.204Z,16.38
2023-02-05T11:36:02.373Z,16.42
2023-02-05T11:38:35.010Z,16.26
2023-02-05T11:41:07.350Z,16.19
2023-02-05T11:43:36.858Z,16.32
2023-02-05T11:46:08.022Z,16.32
2023-02-05T11:48:56.687Z,16.07
2023-02-05T11:51:44.061Z,16.17
2023-02-05T11:54:20.326Z,16.44
2023-02-05T11:57:04.953Z,16.53
2023-02-05T11:59:35.440Z,16.33
2023-02-05T12:02:35.966Z,16.43
2023-02-05T12:05:19.226Z,16.68
2023-02-05T12:07:50.939Z,16.69
2023-02-05T12:10:21.935Z,16.49
2023-02-05T12:13:02.576Z,16.68
2023-02-05T12:15:37.310Z,16.79
2023-02-05T12:18:19.414Z,16.28
2023-02-05T12:20:58.642Z,16.24
2023-02-05T12:23:38.058Z,16.69
2023-02-05T12:26:25.667Z,17.07
2023-02-05T12:29:07.935Z,17.50
2023-02-05T12:31:50.954Z,18.05
2023-02-05T12:34:28.276Z,18.15
2023-02-05T12:37:18.839Z,18.50
2023-02-05T12:39:47.930Z,18.33
2023-02-05T12:42:29.616Z,17.93
2023-02-05T12:45:15.941Z,18.27
2023-02-05T12:47:56.962Z,18.81
2023-02-05T12:50:53.572Z,19.39
2023-02-05T12:53:40.613Z,19.09
2023-02-05T12:56:26.053Z,19.20
2023-02-05T12:58:58.792Z,19.23
2023-02-05T13:01:36.196Z,19.34
2023-02-05T13:04:05.084Z,19.29
2023-02-05T13:06:37.884Z,19.76
2023-02-05T13:09:14.402Z,20.20
2023-02-05T13:11:48.034Z,20.40
2023-02-05T13:14:21.354Z,20.35
2023-02-05T13:16:52.801Z,20.65
2023-02-05T13:19:27.092Z,20.70
2023-02-05T13:21:56.600Z,21.18
2023-02-05T13:24:29.957Z,21.91
2023-02-05T13:26:58.153Z,22.56
2023-02-05T13:29:30.234Z,22.19
2023-02-05T13:32:14.714Z,21.71
2023-02-05T13:34:43.262Z,20.79
2023-02-05T13:37:27.244Z,19.79
2023-02-05T13:40:22.065Z,19.50
2023-02-05T13:43:18.017Z,19.37
2023-02-05T13:46:19.057Z,19.14
2023-02-05T13:49:07.416Z,18.92
2023-02-05T13:52:04.377Z,18.91
2023-02-05T13:55:00.581Z,18.88
2023-02-05T13:58:05.791Z,18.80
2023-02-05T14:00:34.476Z,18.94
2023-02-05T14:03:03.154Z,18.64
2023-02-05T14:05:32.929Z,18.32
2023-02-05T14:08:00.869Z,18.18
2023-02-05T14:10:30.874Z,18.45
2023-02-05T14:13:18.132Z,19.08
2023-02-05T14:15:45.425Z,19.11
2023-02-05T14:18:34.029Z,19.29
2023-02-05T14:21:01.314Z,19.35
2023-02-05T14:23:57.308Z,19.50
2023-02-05T14:26:46.426Z,19.60
2023-02-05T14:29:43.196Z,19.59
2023-02-05T14:32:11.983Z,19.39
2023-02-05T14:34:48.452Z,19.06
2023-02-05T14:37:31.227Z,18.77
2023-02-05T14:40:00.755Z,18.24
2023-02-05T14:42:29.218Z,18.28
2023-02-05T14:45:00.705Z,18.38
2023-02-05T14:47:30.817Z,18.49
2023-02-05T14:50:06.031Z,18.70
2023-02-05T14:52:37.130Z,18.85
2023-02-05T14:55:08.657Z,18.69
2023-02-05T14:57:45.751Z,18.70
2023-02-05T15:00:27.565Z,18.84
2023-02-05T15:03:26.697Z,18.24
2023-02-05T15:05:59.525Z,17.63
2023-02-05T15:08:42.769Z,17.45
2023-02-05T15:11:17.245Z,17.41
2023-02-05T15:14:25.974Z,17.25
2023-02-05T15:17:26.525Z,17.16
2023-02-05T15:20:02.748Z,17.06
2023-02-05T15:22:35.959Z,17.12
2023-02-05T15:25:09.199Z,17.21
2023-02-05T15:27:43.163Z,17.34
2023-02-05T15:30:18.305Z,17.48
2023-02-05T15:32:52.106Z,17.43
2023-02-05T15:35:24.816Z,17.51
2023-02-05T15:37:55.393Z,17.25
2023-02-05T15:40:25.534Z,17.10
2023-02-05T15:42:57.864Z,17.13
2023-02-05T15:45:27.563Z,17.09
2023-02-05T15:48:00.497Z,16.90
2023-02-05T15:50:30.659Z,16.90
2023-02-05T15:52:58.756Z,16.83
2023-02-05T15:55:26.914Z,16.71
2023-02-05T15:58:00.136Z,16.64
2023-02-05T16:00:30.789Z,16.56
2023-02-05T16:03:00.392Z,16.52
2023-02-05T16:05:32.412Z,16.32
2023-02-05T16:07:59.628Z,16.33
2023-02-05T16:10:28.527Z,16.22
2023-02-05T16:13:00.468Z,16.12
2023-02-05T16:15:33.182Z,16.00
2023-02-05T16:18:03.951Z,15.94
2023-02-05T16:20:37.389Z,15.92
2023-02-05T16:23:09.204Z,15.86
2023-02-05T16:25:44.268Z,15.84
2023-02-05T16:28:19.379Z,15.79
2023-02-05T16:30:48.605Z,15.67
2023-02-05T16:33:27.573Z,15.59
2023-02-05T16:36:00.108Z,15.59
2023-02-05T16:38:27.859Z,15.48
2023-02-05T16:40:57.440Z,15.56
2023-02-05T16:43:31.666Z,15.48
2023-02-05T16:46:23.765Z,15.40
2023-02-05T16:48:53.773Z,15.44
2023-02-05T16:51:53.824Z,15.19
2023-02-05T16:54:30.915Z,14.98
2023-02-05T16:57:07.487Z,15.11
2023-02-05T16:59:39.872Z,15.06
2023-02-05T17:02:23.207Z,14.92
2023-02-05T17:04:53.457Z,14.91
2023-02-05T17:07:23.455Z,14.82
2023-02-05T17:09:51.648Z,14.83
2023-02-05T17:12:41.161Z,14.88
2023-02-05T17:15:37.065Z,14.85
2023-02-05T17:18:21.032Z,14.85
2023-02-05T17:20:48.558Z,14.74
2023-02-05T17:23:18.024Z,14.63
2023-02-05T17:25:52.697Z,14.38
2023-02-05T17:28:22.302Z,14.19
2023-02-05T17:30:49.998Z,14.06
2023-02-05T17:33:19.846Z,13.99
2023-02-05T17:35:47.323Z,13.92
2023-02-05T17:38:17.525Z,13.87
2023-02-05T17:40:45.393Z,13.82
2023-02-05T17:43:12.770Z,13.75
2023-02-05T17:45:42.182Z,13.71
2023-02-05T17:48:09.667Z,13.70
2023-02-05T17:50:37.532Z,13.63
2023-02-05T17:53:05.158Z,13.54
2023-02-05T17:55:33.966Z,13.55
2023-02-05T17:58:01.160Z,13.45
2023-02-05T18:00:29.604Z,13.41
2023-02-05T18:02:57.305Z,13.48
2023-02-05T18:05:24.706Z,13.43
2023-02-05T18:07:54.453Z,13.34
2023-02-05T18:10:24.690Z,13.23
2023-02-05T18:12:54.294Z,13.18
2023-02-05T18:15:21.429Z,13.11
2023-02-05T18:17:49.059Z,13.05
2023-02-05T18:20:17.720Z,12.97
2023-02-05T18:22:45.597Z,12.82
2023-02-05T18:25:13.530Z,12.79
2023-02-05T18:27:40.884Z,12.81
2023-02-05T18:30:11.316Z,12.76
2023-02-05T18:32:39.017Z,12.69
2023-02-05T18:35:07.209Z,12.70
2023-02-05T18:37:36.974Z,12.74
2023-02-05T18:40:05.354Z,12.77
2023-02-05T18:42:33.922Z,12.68
2023-02-05T18:45:01.580Z,12.61
2023-02-05T18:47:30.438Z,12.60
2023-02-05T18:49:57.608Z,12.54
2023-02-05T18:52:24.975Z,12.35
2023-02-05T18:54:52.377Z,12.20
2023-02-05T18:57:19.774Z,12.10
2023-02-05T18:59:47.055Z,12.00
2023-02-05T19:02:14.434Z,12.01
2023-02-05T19:04:43.719Z,12.14
2023-02-05T19:07:10.960Z,12.14
2023-02-05T19:09:38.304Z,11.98
2023-02-05T19:12:06.545Z,11.82
2023-02-05T19:14:33.940Z,11.85
2023-02-05T19:17:01.324Z,11.99
2023-02-05T19:19:28.588Z,11.95
2023-02-05T19:21:58.224Z,11.94
2023-02-05T19:24:26.143Z,11.94
2023-02-05T19:26:55.856Z,11.96
2023-02-05T19:29:23.450Z,11.97
2023-02-05T19:31:50.761Z,12.03
2023-02-05T19:34:17.989Z,12.00
2023-02-05T19:36:46.306Z,11.92
2023-02-05T19:39:15.469Z,11.96
2023-02-05T19:41:42.945Z,12.13
2023-02-05T19:44:10.697Z,12.20
2023-02-05T19:46:39.930Z,12.18
2023-02-05T19:49:11.730Z,12.10
2023-02-05T19:51:39.030Z,11.95
2023-02-05T19:54:06.493Z,11.90
2023-02-05T19:56:35.470Z,11.86
2023-02-05T19:59:02.738Z,11.81
2023-02-05T20:01:32.422Z,11.86
2023-02-05T20:04:01.788Z,11.81
2023-02-05T20:06:29.951Z,11.82
2023-02-05T20:08:57.438Z,11.84
2023-02-05T20:11:24.641Z,11.96
2023-02-05T20:13:53.313Z,11.94
2023-02-05T20:16:22.744Z,11.94
2023-02-05T20:18:54.238Z,11.92
2023-02-05T20:21:21.882Z,11.88
2023-02-05T20:23:50.446Z,11.85
2023-02-05T20:26:17.799Z,11.78
2023-02-05T20:28:47.071Z,11.73
2023-02-05T20:31:16.089Z,11.79
2023-02-05T20:33:43.369Z,11.87
2023-02-05T20:36:12.429Z,11.78
2023-02-05T20:38:40.450Z,11.68
2023-02-05T20:41:12.199Z,11.52
2023-02-05T20:43:39.550Z,11.44
2023-02-05T20:46:08.094Z,11.44
2023-02-05T20:48:37.172Z,11.33
2023-02-05T20:51:09.469Z,11.24
2023-02-05T20:53:36.787Z,11.23
2023-02-05T20:56:06.378Z,11.20
2023-02-05T20:58:34.992Z,11.16
2023-02-05T21:01:07.124Z,11.15
2023-02-05T21:03:37.565Z,11.18
2023-02-05T21:06:05.704Z,11.17
2023-02-05T21:08:33.382Z,11.15
2023-02-05T21:11:01.360Z,11.13
2023-02-05T21:13:28.598Z,11.13
2023-02-05T21:15:57.249Z,11.09
2023-02-05T21:18:26.715Z,11.05
2023-02-05T21:20:55.948Z,11.01
2023-02-05T21:23:23.343Z,11.05
2023-02-05T21:25:51.079Z,11.03
2023-02-05T21:28:19.040Z,11.05
2023-02-05T21:30:46.403Z,11.06
2023-02-05T21:33:14.133Z,11.12
2023-02-05T21:35:41.353Z,11.02
2023-02-05T21:38:10.309Z,10.95
2023-02-05T21:40:37.988Z,10.92
2023-02-05T21:43:05.175Z,10.85
2023-02-05T21:45:32.488Z,10.70
2023-02-05T21:47:59.901Z,10.55
2023-02-05T21:50:27.324Z,10.48
2023-02-05T21:52:55.176Z,10.36
2023-02-05T21:55:24.700Z,10.14
2023-02-05T21:57:52.162Z,10.02
2023-02-05T22:00:19.669Z,9.91
2023-02-05T22:02:47.156Z,9.95
2023-02-05T22:05:14.674Z,9.89
2023-02-05T22:07:42.079Z,9.91
2023-02-05T22:10:09.896Z,9.77
2023-02-05T22:12:38.852Z,9.65
2023-02-05T22:15:06.497Z,9.82
2023-02-05T22:17:34.289Z,9.84
2023-02-05T22:20:01.907Z,9.82
2023-02-05T22:22:29.103Z,9.80
2023-02-05T22:24:57.530Z,9.75
2023-02-05T22:27:24.877Z,9.83
2023-02-05T22:29:53.696Z,9.64
2023-02-05T22:32:21.064Z,9.55
2023-02-05T22:34:48.549Z,9.42
2023-02-05T22:37:15.671Z,9.31
2023-02-05T22:39:43.257Z,9.37
2023-02-05T22:42:11.296Z,9.42
2023-02-05T22:44:38.531Z,9.44
2023-02-05T22:47:07.426Z,9.42
2023-02-05T22:49:34.602Z,9.51
2023-02-05T22:52:01.803Z,9.60
2023-02-05T22:54:30.448Z,9.70
2023-02-05T22:56:57.703Z,9.72
2023-02-05T22:59:25.618Z,9.78
2023-02-05T23:01:53.106Z,9.76
2023-02-05T23:04:22.269Z,9.80
2023-02-05T23:06:49.458Z,9.87
2023-02-05T23:09:19.521Z,9.79
2023-02-05T23:11:47.038Z,9.73
2023-02-05T23:14:16.285Z,9.56
2023-02-05T23:16:46.163Z,9.54
2023-02-05T23:19:18.296Z,9.38
2023-02-05T23:21:48.097Z,9.30
2023-02-05T23:24:16.238Z,9.22
2023-02-05T23:26:45.482Z,9.20
2023-02-05T23:29:15.693Z,9.02
2023-02-05T23:31:43.572Z,8.82
2023-02-05T23:34:11.107Z,8.64
2023-02-05T23:36:38.864Z,8.55
2023-02-05T23:39:07.609Z,8.71
2023-02-05T23:41:35.010Z,8.67
2023-02-05T23:44:03.888Z,8.55
2023-02-05T23:46:31.765Z,8.50
2023-02-05T23:48:59.199Z,8.44
2023-02-05T23:51:26.548Z,8.39
2023-02-05T23:53:54.153Z,8.39
2023-02-05T23:56:22.852Z,8.40
2023-02-05T23:58:50.360Z,8.58
